Hamilton, GA (31811)

6:17 PM EDT on July 23, 2016 (GMT -0400)
Piedmont | | Change Station

Elev 820 ft 32.79 °N, 84.98 °W | Updated 1 minute ago

Partly Cloudy
Partly Cloudy
93.6 °F
Feels Like 102 °F
N
2.2
Wind Variable Wind from SSE

Today
High -- | Low -- °F
--% Chance of Precip.
Yesterday
High -- | Low -- °F
Precip. -- in
Pressure 29.94 in
Visibility 10.0 miles
Clouds Few 6000 ft
Heat Index 102 °F
Dew Point 72 °F
Humidity 50%
Rainfall 0.00 in
Snow Depth Not available.
6:48 AM 8:44 PM
Waning Gibbous, 82% visible
METAR KCSG 232151Z 25009KT 10SM FEW060 35/20 A2995 RMK AO2 SLP137 T03500200
Pressure 29.94 in
Visibility 10.0 miles
Clouds Few 6000 ft
Heat Index 102 °F
Dew Point 72 °F
Humidity 50%
Rainfall 0.00 in
Snow Depth Not available.
6:48 AM 8:44 PM
Waning Gibbous, 82% visible
METAR KCSG 232151Z 25009KT 10SM FEW060 35/20 A2995 RMK AO2 SLP137 T03500200

10-Day Weather Forecast

Almanac

Astronomy

Jul. 23, 2016 Rise Set
Actual Time
Civil Twilight
Nautical Twilight
Astronomical Twilight
Moon
Length of Visible Light
Length of Day
Tomorrow will be .
, % of the Moon is Illuminated

Today's Extremes

State Highs State Lows

Community

WunderPhotos

Upload Photos

1,926,940 photos uploaded!

WunderBlog® & News

Nearby

Air Quality

  Air Quality AQ Index Pollutant
Not available.

Snow Depth

Station Depth Elevation

Earthquake Activity

City Distance Mag. Time & Date
Minimum magnitude displayed is 2.5.

Coastal Water Temperatures

Place Temperature

Stations

Nearby Weather Stations

Station Location Temp. Windchill Dew Point Humidity Wind Precip. Elev Updated Type
                   

Watches & Warnings

There are currently no watches in effect.